sensor_id;sensor_type;location;lat;lon;timestamp;P1;durP1;ratioP1;P2;durP2;ratioP2
51090;SDS011;37136;43.614;3.908;2023-03-01T00:01:53;11.50;;;8.13;;
51090;SDS011;37136;43.614;3.908;2023-03-01T00:04:19;11.85;;;7.22;;
51090;SDS011;37136;43.614;3.908;2023-03-01T00:06:46;9.23;;;7.13;;
51090;SDS011;37136;43.614;3.908;2023-03-01T00:09:15;9.27;;;7.13;;
51090;SDS011;37136;43.614;3.908;2023-03-01T00:11:42;9.80;;;6.88;;
51090;SDS011;37136;43.614;3.908;2023-03-01T00:14:08;10.35;;;7.40;;
51090;SDS011;37136;43.614;3.908;2023-03-01T00:16:39;8.80;;;7.07;;
51090;SDS011;37136;43.614;3.908;2023-03-01T00:19:06;10.98;;;6.80;;
51090;SDS011;37136;43.614;3.908;2023-03-01T00:21:32;8.65;;;6.97;;
51090;SDS011;37136;43.614;3.908;2023-03-01T00:24:00;12.35;;;8.38;;
51090;SDS011;37136;43.614;3.908;2023-03-01T00:26:26;14.15;;;8.40;;
51090;SDS011;37136;43.614;3.908;2023-03-01T00:28:53;8.88;;;6.90;;
51090;SDS011;37136;43.614;3.908;2023-03-01T00:31:23;9.20;;;7.05;;
51090;SDS011;37136;43.614;3.908;2023-03-01T00:33:57;9.25;;;6.28;;
51090;SDS011;37136;43.614;3.908;2023-03-01T00:36:27;11.77;;;7.78;;
51090;SDS011;37136;43.614;3.908;2023-03-01T00:38:54;9.98;;;6.88;;
51090;SDS011;37136;43.614;3.908;2023-03-01T00:41:20;9.85;;;7.45;;
51090;SDS011;37136;43.614;3.908;2023-03-01T00:43:51;9.63;;;6.95;;
51090;SDS011;37136;43.614;3.908;2023-03-01T00:46:19;8.45;;;6.80;;
51090;SDS011;37136;43.614;3.908;2023-03-01T00:48:45;13.02;;;6.70;;
51090;SDS011;37136;43.614;3.908;2023-03-01T00:53:38;11.25;;;6.90;;
51090;SDS011;37136;43.614;3.908;2023-03-01T00:56:05;8.50;;;6.45;;
51090;SDS011;37136;43.614;3.908;2023-03-01T00:58:32;7.35;;;6.45;;
51090;SDS011;37136;43.614;3.908;2023-03-01T01:00:58;9.98;;;6.20;;
51090;SDS011;37136;43.614;3.908;2023-03-01T01:03:25;10.20;;;6.72;;
51090;SDS011;37136;43.614;3.908;2023-03-01T01:05:51;10.15;;;7.57;;
51090;SDS011;37136;43.614;3.908;2023-03-01T01:08:18;8.90;;;6.63;;
51090;SDS011;37136;43.614;3.908;2023-03-01T01:10:44;9.52;;;6.25;;
51090;SDS011;37136;43.614;3.908;2023-03-01T01:13:11;8.45;;;6.30;;
51090;SDS011;37136;43.614;3.908;2023-03-01T01:15:37;9.02;;;6.70;;
51090;SDS011;37136;43.614;3.908;2023-03-01T01:18:04;10.27;;;5.80;;
51090;SDS011;37136;43.614;3.908;2023-03-01T01:20:30;11.20;;;6.28;;
51090;SDS011;37136;43.614;3.908;2023-03-01T01:22:57;9.70;;;6.93;;
51090;SDS011;37136;43.614;3.908;2023-03-01T01:25:23;11.10;;;6.78;;
51090;SDS011;37136;43.614;3.908;2023-03-01T01:27:52;10.65;;;7.10;;
51090;SDS011;37136;43.614;3.908;2023-03-01T01:30:18;11.73;;;6.53;;
51090;SDS011;37136;43.614;3.908;2023-03-01T01:32:45;9.68;;;7.40;;
51090;SDS011;37136;43.614;3.908;2023-03-01T01:35:11;9.00;;;6.78;;
51090;SDS011;37136;43.614;3.908;2023-03-01T01:37:37;9.35;;;6.22;;
51090;SDS011;37136;43.614;3.908;2023-03-01T01:40:03;8.68;;;7.00;;
51090;SDS011;37136;43.614;3.908;2023-03-01T01:42:30;9.27;;;6.85;;
51090;SDS011;37136;43.614;3.908;2023-03-01T01:47:41;8.13;;;6.25;;
51090;SDS011;37136;43.614;3.908;2023-03-01T01:50:08;9.13;;;6.60;;
51090;SDS011;37136;43.614;3.908;2023-03-01T01:52:35;9.07;;;6.90;;
51090;SDS011;37136;43.614;3.908;2023-03-01T01:55:25;8.50;;;6.70;;
51090;SDS011;37136;43.614;3.908;2023-03-01T01:57:51;8.63;;;6.30;;
51090;SDS011;37136;43.614;3.908;2023-03-01T02:02:45;9.25;;;6.97;;
51090;SDS011;37136;43.614;3.908;2023-03-01T02:08:13;10.32;;;6.80;;
51090;SDS011;37136;43.614;3.908;2023-03-01T02:10:40;8.50;;;6.25;;
51090;SDS011;37136;43.614;3.908;2023-03-01T02:13:06;9.02;;;6.95;;
51090;SDS011;37136;43.614;3.908;2023-03-01T02:15:33;14.95;;;6.47;;
51090;SDS011;37136;43.614;3.908;2023-03-01T02:18:01;11.65;;;6.57;;
51090;SDS011;37136;43.614;3.908;2023-03-01T02:22:56;11.77;;;7.30;;
51090;SDS011;37136;43.614;3.908;2023-03-01T02:25:27;7.95;;;6.10;;
51090;SDS011;37136;43.614;3.908;2023-03-01T02:30:40;10.00;;;6.75;;
51090;SDS011;37136;43.614;3.908;2023-03-01T02:33:27;9.45;;;6.25;;
51090;SDS011;37136;43.614;3.908;2023-03-01T02:35:54;11.70;;;6.68;;
51090;SDS011;37136;43.614;3.908;2023-03-01T02:38:20;9.50;;;6.20;;
51090;SDS011;37136;43.614;3.908;2023-03-01T02:40:48;8.57;;;6.53;;
51090;SDS011;37136;43.614;3.908;2023-03-01T02:43:15;8.38;;;6.10;;
51090;SDS011;37136;43.614;3.908;2023-03-01T02:45:51;8.85;;;6.70;;
51090;SDS011;37136;43.614;3.908;2023-03-01T02:48:19;19.08;;;9.88;;
51090;SDS011;37136;43.614;3.908;2023-03-01T02:50:51;9.98;;;6.78;;
51090;SDS011;37136;43.614;3.908;2023-03-01T02:55:47;9.45;;;7.13;;
51090;SDS011;37136;43.614;3.908;2023-03-01T02:58:13;9.82;;;6.88;;
51090;SDS011;37136;43.614;3.908;2023-03-01T03:00:40;11.43;;;6.85;;
51090;SDS011;37136;43.614;3.908;2023-03-01T03:03:10;14.20;;;6.80;;
51090;SDS011;37136;43.614;3.908;2023-03-01T03:05:39;10.07;;;6.85;;
51090;SDS011;37136;43.614;3.908;2023-03-01T03:08:05;10.70;;;6.93;;
51090;SDS011;37136;43.614;3.908;2023-03-01T03:10:34;10.98;;;7.78;;
51090;SDS011;37136;43.614;3.908;2023-03-01T03:13:02;15.48;;;7.70;;
51090;SDS011;37136;43.614;3.908;2023-03-01T03:15:28;12.27;;;7.50;;
51090;SDS011;37136;43.614;3.908;2023-03-01T03:17:55;13.60;;;6.85;;
51090;SDS011;37136;43.614;3.908;2023-03-01T03:20:23;12.07;;;6.18;;
51090;SDS011;37136;43.614;3.908;2023-03-01T03:22:50;8.70;;;6.72;;
51090;SDS011;37136;43.614;3.908;2023-03-01T03:25:17;9.50;;;6.82;;
51090;SDS011;37136;43.614;3.908;2023-03-01T03:27:44;12.10;;;6.88;;
51090;SDS011;37136;43.614;3.908;2023-03-01T03:30:12;9.55;;;6.75;;
51090;SDS011;37136;43.614;3.908;2023-03-01T03:32:42;8.88;;;6.80;;
51090;SDS011;37136;43.614;3.908;2023-03-01T03:35:17;9.90;;;7.50;;
51090;SDS011;37136;43.614;3.908;2023-03-01T03:37:44;11.57;;;7.50;;
51090;SDS011;37136;43.614;3.908;2023-03-01T03:40:38;9.85;;;7.13;;
51090;SDS011;37136;43.614;3.908;2023-03-01T03:43:06;10.55;;;7.15;;
51090;SDS011;37136;43.614;3.908;2023-03-01T03:45:32;13.75;;;7.38;;
51090;SDS011;37136;43.614;3.908;2023-03-01T03:48:00;10.13;;;6.95;;
51090;SDS011;37136;43.614;3.908;2023-03-01T03:50:26;9.88;;;6.82;;
51090;SDS011;37136;43.614;3.908;2023-03-01T03:52:53;9.30;;;6.60;;
51090;SDS011;37136;43.614;3.908;2023-03-01T03:55:19;7.30;;;6.55;;
51090;SDS011;37136;43.614;3.908;2023-03-01T03:57:45;10.98;;;6.70;;
51090;SDS011;37136;43.614;3.908;2023-03-01T04:00:20;11.55;;;7.32;;
51090;SDS011;37136;43.614;3.908;2023-03-01T04:02:47;11.13;;;6.47;;
51090;SDS011;37136;43.614;3.908;2023-03-01T04:05:14;7.68;;;5.95;;
51090;SDS011;37136;43.614;3.908;2023-03-01T04:07:41;13.60;;;6.35;;
51090;SDS011;37136;43.614;3.908;2023-03-01T04:10:11;10.45;;;7.18;;
51090;SDS011;37136;43.614;3.908;2023-03-01T04:12:37;9.60;;;6.93;;
51090;SDS011;37136;43.614;3.908;2023-03-01T04:15:04;9.63;;;6.82;;
51090;SDS011;37136;43.614;3.908;2023-03-01T04:17:38;11.80;;;7.22;;
51090;SDS011;37136;43.614;3.908;2023-03-01T04:20:04;12.48;;;6.88;;
51090;SDS011;37136;43.614;3.908;2023-03-01T04:22:32;12.20;;;8.05;;
51090;SDS011;37136;43.614;3.908;2023-03-01T04:24:58;9.80;;;7.55;;
51090;SDS011;37136;43.614;3.908;2023-03-01T04:27:34;14.05;;;7.60;;
51090;SDS011;37136;43.614;3.908;2023-03-01T04:30:00;9.82;;;7.60;;
51090;SDS011;37136;43.614;3.908;2023-03-01T04:32:26;10.85;;;7.43;;
51090;SDS011;37136;43.614;3.908;2023-03-01T04:34:53;8.45;;;7.13;;
51090;SDS011;37136;43.614;3.908;2023-03-01T04:37:19;9.82;;;7.55;;
51090;SDS011;37136;43.614;3.908;2023-03-01T04:39:45;10.70;;;7.75;;
51090;SDS011;37136;43.614;3.908;2023-03-01T04:42:13;11.25;;;7.40;;
51090;SDS011;37136;43.614;3.908;2023-03-01T04:44:39;10.10;;;7.25;;
51090;SDS011;37136;43.614;3.908;2023-03-01T04:47:06;11.50;;;7.00;;
51090;SDS011;37136;43.614;3.908;2023-03-01T04:49:32;10.32;;;7.68;;
51090;SDS011;37136;43.614;3.908;2023-03-01T04:51:58;8.43;;;7.05;;
51090;SDS011;37136;43.614;3.908;2023-03-01T04:54:27;12.20;;;7.80;;
51090;SDS011;37136;43.614;3.908;2023-03-01T04:56:53;8.93;;;6.65;;
51090;SDS011;37136;43.614;3.908;2023-03-01T04:59:20;11.98;;;8.57;;
51090;SDS011;37136;43.614;3.908;2023-03-01T05:04:15;10.57;;;7.28;;
51090;SDS011;37136;43.614;3.908;2023-03-01T05:06:41;10.48;;;7.30;;
51090;SDS011;37136;43.614;3.908;2023-03-01T05:09:08;11.07;;;7.53;;
51090;SDS011;37136;43.614;3.908;2023-03-01T05:11:34;10.23;;;7.97;;
51090;SDS011;37136;43.614;3.908;2023-03-01T05:14:07;10.25;;;8.00;;
51090;SDS011;37136;43.614;3.908;2023-03-01T05:16:33;11.05;;;6.90;;
51090;SDS011;37136;43.614;3.908;2023-03-01T05:19:01;11.48;;;7.38;;
51090;SDS011;37136;43.614;3.908;2023-03-01T05:21:36;10.48;;;7.13;;
51090;SDS011;37136;43.614;3.908;2023-03-01T05:24:23;9.40;;;7.45;;
51090;SDS011;37136;43.614;3.908;2023-03-01T05:26:49;14.68;;;8.68;;
51090;SDS011;37136;43.614;3.908;2023-03-01T05:29:19;12.60;;;8.27;;
51090;SDS011;37136;43.614;3.908;2023-03-01T05:31:56;11.15;;;7.18;;
51090;SDS011;37136;43.614;3.908;2023-03-01T05:34:29;11.70;;;7.35;;
51090;SDS011;37136;43.614;3.908;2023-03-01T05:36:56;10.13;;;7.60;;
51090;SDS011;37136;43.614;3.908;2023-03-01T05:39:23;12.00;;;8.38;;
51090;SDS011;37136;43.614;3.908;2023-03-01T05:41:57;12.77;;;9.15;;
51090;SDS011;37136;43.614;3.908;2023-03-01T05:44:24;15.98;;;8.70;;
51090;SDS011;37136;43.614;3.908;2023-03-01T05:46:51;11.80;;;7.85;;
51090;SDS011;37136;43.614;3.908;2023-03-01T05:49:17;11.07;;;8.07;;
51090;SDS011;37136;43.614;3.908;2023-03-01T05:51:47;10.15;;;7.65;;
51090;SDS011;37136;43.614;3.908;2023-03-01T05:54:13;13.07;;;7.57;;
51090;SDS011;37136;43.614;3.908;2023-03-01T05:56:39;13.77;;;8.25;;
51090;SDS011;37136;43.614;3.908;2023-03-01T05:59:05;11.15;;;8.48;;
51090;SDS011;37136;43.614;3.908;2023-03-01T06:01:32;13.07;;;7.72;;
51090;SDS011;37136;43.614;3.908;2023-03-01T06:03:58;12.98;;;7.97;;
51090;SDS011;37136;43.614;3.908;2023-03-01T06:06:25;14.00;;;8.57;;
51090;SDS011;37136;43.614;3.908;2023-03-01T06:08:52;13.23;;;8.80;;
51090;SDS011;37136;43.614;3.908;2023-03-01T06:11:19;10.05;;;7.80;;
51090;SDS011;37136;43.614;3.908;2023-03-01T06:13:45;13.75;;;8.80;;
51090;SDS011;37136;43.614;3.908;2023-03-01T06:16:12;12.82;;;8.43;;
51090;SDS011;37136;43.614;3.908;2023-03-01T06:18:38;12.88;;;8.35;;
51090;SDS011;37136;43.614;3.908;2023-03-01T06:21:05;14.57;;;8.90;;
51090;SDS011;37136;43.614;3.908;2023-03-01T06:23:32;12.73;;;8.73;;
51090;SDS011;37136;43.614;3.908;2023-03-01T06:25:58;12.85;;;8.75;;
51090;SDS011;37136;43.614;3.908;2023-03-01T06:28:24;11.75;;;8.52;;
51090;SDS011;37136;43.614;3.908;2023-03-01T06:30:51;18.13;;;8.88;;
51090;SDS011;37136;43.614;3.908;2023-03-01T06:33:17;15.55;;;9.10;;
51090;SDS011;37136;43.614;3.908;2023-03-01T06:35:45;13.82;;;9.52;;
51090;SDS011;37136;43.614;3.908;2023-03-01T06:38:12;15.43;;;9.15;;
51090;SDS011;37136;43.614;3.908;2023-03-01T06:40:44;13.65;;;8.70;;
51090;SDS011;37136;43.614;3.908;2023-03-01T06:43:10;16.55;;;9.60;;
51090;SDS011;37136;43.614;3.908;2023-03-01T06:45:36;13.82;;;8.77;;
51090;SDS011;37136;43.614;3.908;2023-03-01T06:48:06;13.02;;;8.70;;
51090;SDS011;37136;43.614;3.908;2023-03-01T06:50:33;14.10;;;9.02;;
51090;SDS011;37136;43.614;3.908;2023-03-01T06:52:59;16.85;;;8.93;;
51090;SDS011;37136;43.614;3.908;2023-03-01T06:55:26;18.95;;;9.32;;
51090;SDS011;37136;43.614;3.908;2023-03-01T06:57:55;16.15;;;9.85;;
51090;SDS011;37136;43.614;3.908;2023-03-01T07:00:21;13.00;;;9.25;;
51090;SDS011;37136;43.614;3.908;2023-03-01T07:02:48;16.10;;;9.18;;
51090;SDS011;37136;43.614;3.908;2023-03-01T07:05:14;11.85;;;8.50;;
51090;SDS011;37136;43.614;3.908;2023-03-01T07:07:40;13.18;;;9.27;;
51090;SDS011;37136;43.614;3.908;2023-03-01T07:10:06;11.93;;;8.38;;
51090;SDS011;37136;43.614;3.908;2023-03-01T07:12:33;11.60;;;8.55;;
51090;SDS011;37136;43.614;3.908;2023-03-01T07:14:59;12.00;;;8.77;;
51090;SDS011;37136;43.614;3.908;2023-03-01T07:17:25;10.93;;;8.43;;
51090;SDS011;37136;43.614;3.908;2023-03-01T07:19:51;10.60;;;8.63;;
51090;SDS011;37136;43.614;3.908;2023-03-01T07:22:18;12.27;;;8.90;;
51090;SDS011;37136;43.614;3.908;2023-03-01T07:24:44;15.00;;;9.02;;
51090;SDS011;37136;43.614;3.908;2023-03-01T07:27:10;11.55;;;9.13;;
51090;SDS011;37136;43.614;3.908;2023-03-01T07:29:36;14.93;;;8.95;;
51090;SDS011;37136;43.614;3.908;2023-03-01T07:32:03;12.48;;;8.63;;
51090;SDS011;37136;43.614;3.908;2023-03-01T07:34:29;14.10;;;8.07;;
51090;SDS011;37136;43.614;3.908;2023-03-01T07:36:55;12.90;;;9.07;;
51090;SDS011;37136;43.614;3.908;2023-03-01T07:39:22;16.70;;;9.55;;
51090;SDS011;37136;43.614;3.908;2023-03-01T07:41:48;16.05;;;9.25;;
51090;SDS011;37136;43.614;3.908;2023-03-01T07:44:14;13.13;;;9.68;;
51090;SDS011;37136;43.614;3.908;2023-03-01T07:46:42;16.58;;;9.48;;
51090;SDS011;37136;43.614;3.908;2023-03-01T07:49:08;13.38;;;8.75;;
51090;SDS011;37136;43.614;3.908;2023-03-01T07:51:34;16.45;;;9.65;;
51090;SDS011;37136;43.614;3.908;2023-03-01T07:54:01;11.88;;;9.43;;
51090;SDS011;37136;43.614;3.908;2023-03-01T07:56:27;16.38;;;10.13;;
51090;SDS011;37136;43.614;3.908;2023-03-01T07:58:53;14.68;;;10.02;;
51090;SDS011;37136;43.614;3.908;2023-03-01T08:01:20;15.25;;;11.18;;
51090;SDS011;37136;43.614;3.908;2023-03-01T08:03:46;14.05;;;10.18;;
51090;SDS011;37136;43.614;3.908;2023-03-01T08:06:13;12.45;;;9.82;;
51090;SDS011;37136;43.614;3.908;2023-03-01T08:08:39;13.10;;;9.80;;
51090;SDS011;37136;43.614;3.908;2023-03-01T08:11:06;15.38;;;11.93;;
51090;SDS011;37136;43.614;3.908;2023-03-01T08:13:33;19.55;;;10.57;;
51090;SDS011;37136;43.614;3.908;2023-03-01T08:16:02;16.05;;;10.52;;
51090;SDS011;37136;43.614;3.908;2023-03-01T08:18:28;16.08;;;10.32;;
51090;SDS011;37136;43.614;3.908;2023-03-01T08:20:54;16.02;;;10.27;;
51090;SDS011;37136;43.614;3.908;2023-03-01T08:23:20;16.73;;;10.10;;
51090;SDS011;37136;43.614;3.908;2023-03-01T08:25:46;15.55;;;10.55;;
51090;SDS011;37136;43.614;3.908;2023-03-01T08:28:12;18.48;;;10.38;;
51090;SDS011;37136;43.614;3.908;2023-03-01T08:30:38;22.55;;;10.10;;
51090;SDS011;37136;43.614;3.908;2023-03-01T08:33:05;16.10;;;9.88;;
51090;SDS011;37136;43.614;3.908;2023-03-01T08:35:31;13.25;;;9.63;;
51090;SDS011;37136;43.614;3.908;2023-03-01T08:37:57;13.93;;;9.85;;
51090;SDS011;37136;43.614;3.908;2023-03-01T08:40:23;11.02;;;8.63;;
51090;SDS011;37136;43.614;3.908;2023-03-01T08:42:49;14.07;;;9.48;;
51090;SDS011;37136;43.614;3.908;2023-03-01T08:45:15;16.25;;;9.48;;
51090;SDS011;37136;43.614;3.908;2023-03-01T08:47:43;13.83;;;8.90;;
51090;SDS011;37136;43.614;3.908;2023-03-01T08:50:10;12.82;;;9.27;;
51090;SDS011;37136;43.614;3.908;2023-03-01T08:52:36;13.50;;;8.63;;
51090;SDS011;37136;43.614;3.908;2023-03-01T08:55:02;18.67;;;9.32;;
51090;SDS011;37136;43.614;3.908;2023-03-01T08:57:29;13.57;;;8.75;;
51090;SDS011;37136;43.614;3.908;2023-03-01T08:59:55;10.50;;;8.52;;
51090;SDS011;37136;43.614;3.908;2023-03-01T09:02:22;16.05;;;9.00;;
51090;SDS011;37136;43.614;3.908;2023-03-01T09:04:48;20.98;;;9.90;;
51090;SDS011;37136;43.614;3.908;2023-03-01T09:07:14;11.23;;;8.75;;
51090;SDS011;37136;43.614;3.908;2023-03-01T09:09:40;11.23;;;8.63;;
51090;SDS011;37136;43.614;3.908;2023-03-01T09:12:06;16.50;;;9.73;;
51090;SDS011;37136;43.614;3.908;2023-03-01T09:14:33;12.35;;;8.63;;
51090;SDS011;37136;43.614;3.908;2023-03-01T09:16:59;12.75;;;8.30;;
51090;SDS011;37136;43.614;3.908;2023-03-01T09:19:27;10.90;;;8.48;;
51090;SDS011;37136;43.614;3.908;2023-03-01T09:21:53;11.65;;;9.23;;
51090;SDS011;37136;43.614;3.908;2023-03-01T09:24:21;14.07;;;9.07;;
51090;SDS011;37136;43.614;3.908;2023-03-01T09:26:48;12.68;;;9.35;;
51090;SDS011;37136;43.614;3.908;2023-03-01T09:29:14;11.15;;;8.20;;
51090;SDS011;37136;43.614;3.908;2023-03-01T09:31:41;12.68;;;8.45;;
51090;SDS011;37136;43.614;3.908;2023-03-01T09:34:07;11.65;;;8.63;;
51090;SDS011;37136;43.614;3.908;2023-03-01T09:36:34;14.82;;;8.52;;
51090;SDS011;37136;43.614;3.908;2023-03-01T09:39:01;13.15;;;8.90;;
51090;SDS011;37136;43.614;3.908;2023-03-01T09:41:36;11.18;;;8.65;;
51090;SDS011;37136;43.614;3.908;2023-03-01T09:46:48;14.98;;;8.98;;
51090;SDS011;37136;43.614;3.908;2023-03-01T09:49:19;10.90;;;9.02;;
51090;SDS011;37136;43.614;3.908;2023-03-01T09:51:48;14.80;;;8.55;;
51090;SDS011;37136;43.614;3.908;2023-03-01T09:54:17;12.20;;;8.70;;
51090;SDS011;37136;43.614;3.908;2023-03-01T09:56:56;11.25;;;8.15;;
51090;SDS011;37136;43.614;3.908;2023-03-01T09:59:25;9.52;;;7.93;;
51090;SDS011;37136;43.614;3.908;2023-03-01T10:09:40;12.82;;;8.75;;
51090;SDS011;37136;43.614;3.908;2023-03-01T10:12:26;12.65;;;8.65;;
51090;SDS011;37136;43.614;3.908;2023-03-01T10:14:55;13.95;;;8.93;;
51090;SDS011;37136;43.614;3.908;2023-03-01T10:22:53;11.98;;;8.07;;
51090;SDS011;37136;43.614;3.908;2023-03-01T10:25:26;10.70;;;8.13;;
51090;SDS011;37136;43.614;3.908;2023-03-01T10:28:00;9.50;;;7.65;;
51090;SDS011;37136;43.614;3.908;2023-03-01T10:30:38;9.40;;;7.90;;
51090;SDS011;37136;43.614;3.908;2023-03-01T10:35:51;11.15;;;7.97;;
51090;SDS011;37136;43.614;3.908;2023-03-01T10:38:18;17.67;;;8.73;;
51090;SDS011;37136;43.614;3.908;2023-03-01T10:43:20;16.83;;;8.43;;
51090;SDS011;37136;43.614;3.908;2023-03-01T10:45:47;8.73;;;7.82;;
51090;SDS011;37136;43.614;3.908;2023-03-01T10:48:17;12.93;;;8.80;;
51090;SDS011;37136;43.614;3.908;2023-03-01T10:50:50;13.48;;;8.35;;
51090;SDS011;37136;43.614;3.908;2023-03-01T10:53:21;14.38;;;9.07;;
51090;SDS011;37136;43.614;3.908;2023-03-01T10:55:56;10.10;;;8.15;;
51090;SDS011;37136;43.614;3.908;2023-03-01T10:58:22;11.63;;;7.63;;
51090;SDS011;37136;43.614;3.908;2023-03-01T11:00:58;10.63;;;7.25;;
51090;SDS011;37136;43.614;3.908;2023-03-01T11:03:29;12.82;;;7.50;;
51090;SDS011;37136;43.614;3.908;2023-03-01T11:06:03;9.32;;;7.50;;
51090;SDS011;37136;43.614;3.908;2023-03-01T11:08:37;12.43;;;6.90;;
51090;SDS011;37136;43.614;3.908;2023-03-01T11:11:06;10.90;;;6.88;;
51090;SDS011;37136;43.614;3.908;2023-03-01T11:13:36;11.15;;;7.55;;
51090;SDS011;37136;43.614;3.908;2023-03-01T11:16:10;8.43;;;6.75;;
51090;SDS011;37136;43.614;3.908;2023-03-01T11:18:37;8.82;;;7.38;;
51090;SDS011;37136;43.614;3.908;2023-03-01T11:21:03;10.60;;;8.27;;
51090;SDS011;37136;43.614;3.908;2023-03-01T11:23:32;10.48;;;7.40;;
51090;SDS011;37136;43.614;3.908;2023-03-01T11:25:59;9.35;;;6.88;;
51090;SDS011;37136;43.614;3.908;2023-03-01T11:28:27;8.75;;;6.93;;
51090;SDS011;37136;43.614;3.908;2023-03-01T11:31:06;9.95;;;7.05;;
51090;SDS011;37136;43.614;3.908;2023-03-01T11:33:47;9.05;;;6.93;;
51090;SDS011;37136;43.614;3.908;2023-03-01T11:39:05;9.82;;;7.22;;
51090;SDS011;37136;43.614;3.908;2023-03-01T11:41:37;14.63;;;7.37;;
51090;SDS011;37136;43.614;3.908;2023-03-01T11:46:43;7.80;;;6.68;;
51090;SDS011;37136;43.614;3.908;2023-03-01T11:57:10;10.48;;;6.70;;
51090;SDS011;37136;43.614;3.908;2023-03-01T11:59:57;8.50;;;6.55;;
51090;SDS011;37136;43.614;3.908;2023-03-01T12:05:16;10.18;;;7.35;;
51090;SDS011;37136;43.614;3.908;2023-03-01T12:10:32;8.00;;;7.20;;
51090;SDS011;37136;43.614;3.908;2023-03-01T12:37:04;16.73;;;7.78;;
51090;SDS011;37136;43.614;3.908;2023-03-01T12:42:01;9.20;;;7.53;;
51090;SDS011;37136;43.614;3.908;2023-03-01T12:50:20;11.63;;;7.97;;
51090;SDS011;37136;43.614;3.908;2023-03-01T12:52:52;10.90;;;8.40;;
51090;SDS011;37136;43.614;3.908;2023-03-01T13:00:36;13.25;;;8.57;;
51090;SDS011;37136;43.614;3.908;2023-03-01T13:08:11;18.58;;;9.75;;
51090;SDS011;37136;43.614;3.908;2023-03-01T13:10:46;16.00;;;8.45;;
51090;SDS011;37136;43.614;3.908;2023-03-01T13:13:14;11.50;;;9.30;;
51090;SDS011;37136;43.614;3.908;2023-03-01T13:15:44;12.27;;;8.52;;
51090;SDS011;37136;43.614;3.908;2023-03-01T13:23:23;22.80;;;8.85;;
51090;SDS011;37136;43.614;3.908;2023-03-01T13:31:56;10.65;;;7.88;;
51090;SDS011;37136;43.614;3.908;2023-03-01T13:33:57;12.55;;;8.48;;
51090;SDS011;37136;43.614;3.908;2023-03-01T13:46:46;19.13;;;11.40;;
51090;SDS011;37136;43.614;3.908;2023-03-01T13:49:14;23.58;;;9.40;;
51090;SDS011;37136;43.614;3.908;2023-03-01T13:51:41;12.18;;;8.40;;
51090;SDS011;37136;43.614;3.908;2023-03-01T13:54:10;16.05;;;8.02;;
51090;SDS011;37136;43.614;3.908;2023-03-01T13:56:37;10.63;;;7.90;;
51090;SDS011;37136;43.614;3.908;2023-03-01T13:59:13;12.30;;;8.30;;
51090;SDS011;37136;43.614;3.908;2023-03-01T14:01:39;13.55;;;8.35;;
51090;SDS011;37136;43.614;3.908;2023-03-01T14:04:24;14.20;;;8.57;;
51090;SDS011;37136;43.614;3.908;2023-03-01T14:06:52;15.07;;;8.25;;
51090;SDS011;37136;43.614;3.908;2023-03-01T14:09:33;14.48;;;8.85;;
51090;SDS011;37136;43.614;3.908;2023-03-01T14:12:10;11.18;;;8.20;;
51090;SDS011;37136;43.614;3.908;2023-03-01T14:14:40;12.43;;;8.23;;
51090;SDS011;37136;43.614;3.908;2023-03-01T14:19:56;14.15;;;9.13;;
51090;SDS011;37136;43.614;3.908;2023-03-01T14:27:15;13.35;;;8.20;;
51090;SDS011;37136;43.614;3.908;2023-03-01T14:29:42;13.32;;;8.85;;
51090;SDS011;37136;43.614;3.908;2023-03-01T14:32:10;11.35;;;8.10;;
51090;SDS011;37136;43.614;3.908;2023-03-01T14:37:19;14.02;;;8.07;;
51090;SDS011;37136;43.614;3.908;2023-03-01T14:39:45;10.88;;;8.27;;
51090;SDS011;37136;43.614;3.908;2023-03-01T14:42:12;10.57;;;8.15;;
51090;SDS011;37136;43.614;3.908;2023-03-01T14:44:40;14.98;;;8.63;;
51090;SDS011;37136;43.614;3.908;2023-03-01T14:47:10;11.20;;;8.73;;
51090;SDS011;37136;43.614;3.908;2023-03-01T14:49:39;10.02;;;8.32;;
51090;SDS011;37136;43.614;3.908;2023-03-01T14:52:07;10.52;;;8.18;;
51090;SDS011;37136;43.614;3.908;2023-03-01T14:57:28;14.52;;;8.60;;
51090;SDS011;37136;43.614;3.908;2023-03-01T14:59:55;9.85;;;7.57;;
51090;SDS011;37136;43.614;3.908;2023-03-01T15:02:24;11.25;;;7.57;;
51090;SDS011;37136;43.614;3.908;2023-03-01T15:04:52;14.90;;;7.77;;
51090;SDS011;37136;43.614;3.908;2023-03-01T15:07:18;13.73;;;8.07;;
51090;SDS011;37136;43.614;3.908;2023-03-01T15:09:45;11.13;;;7.68;;
51090;SDS011;37136;43.614;3.908;2023-03-01T15:14:56;11.30;;;7.93;;
51090;SDS011;37136;43.614;3.908;2023-03-01T15:17:32;8.82;;;6.82;;
51090;SDS011;37136;43.614;3.908;2023-03-01T15:20:00;14.93;;;8.82;;
51090;SDS011;37136;43.614;3.908;2023-03-01T15:22:27;25.90;;;12.73;;
51090;SDS011;37136;43.614;3.908;2023-03-01T15:24:53;20.85;;;10.88;;
51090;SDS011;37136;43.614;3.908;2023-03-01T15:27:21;16.23;;;10.20;;
51090;SDS011;37136;43.614;3.908;2023-03-01T15:30:13;20.90;;;12.90;;
51090;SDS011;37136;43.614;3.908;2023-03-01T15:32:35;9.60;;;8.43;;
51090;SDS011;37136;43.614;3.908;2023-03-01T15:37:49;11.63;;;8.90;;
51090;SDS011;37136;43.614;3.908;2023-03-01T15:42:45;11.73;;;8.20;;
51090;SDS011;37136;43.614;3.908;2023-03-01T15:47:43;10.85;;;8.82;;
51090;SDS011;37136;43.614;3.908;2023-03-01T15:50:26;14.80;;;8.65;;
51090;SDS011;37136;43.614;3.908;2023-03-01T15:52:53;10.32;;;8.35;;
51090;SDS011;37136;43.614;3.908;2023-03-01T15:57:46;16.60;;;8.85;;
51090;SDS011;37136;43.614;3.908;2023-03-01T16:00:12;17.02;;;8.38;;
51090;SDS011;37136;43.614;3.908;2023-03-01T16:02:39;15.02;;;8.63;;
51090;SDS011;37136;43.614;3.908;2023-03-01T16:05:08;10.25;;;8.10;;
51090;SDS011;37136;43.614;3.908;2023-03-01T16:07:35;13.85;;;8.30;;
51090;SDS011;37136;43.614;3.908;2023-03-01T16:10:04;10.20;;;8.45;;
51090;SDS011;37136;43.614;3.908;2023-03-01T16:12:30;13.10;;;9.05;;
51090;SDS011;37136;43.614;3.908;2023-03-01T16:14:57;10.95;;;8.65;;
51090;SDS011;37136;43.614;3.908;2023-03-01T16:17:23;12.10;;;8.15;;
51090;SDS011;37136;43.614;3.908;2023-03-01T16:19:50;14.40;;;8.85;;
51090;SDS011;37136;43.614;3.908;2023-03-01T16:22:16;11.40;;;8.63;;
51090;SDS011;37136;43.614;3.908;2023-03-01T16:24:42;17.40;;;10.13;;
51090;SDS011;37136;43.614;3.908;2023-03-01T16:27:08;13.18;;;8.63;;
51090;SDS011;37136;43.614;3.908;2023-03-01T16:29:34;15.10;;;9.05;;
51090;SDS011;37136;43.614;3.908;2023-03-01T16:32:01;13.15;;;8.88;;
51090;SDS011;37136;43.614;3.908;2023-03-01T16:34:27;13.55;;;8.40;;
51090;SDS011;37136;43.614;3.908;2023-03-01T16:36:53;22.17;;;12.38;;
51090;SDS011;37136;43.614;3.908;2023-03-01T16:39:20;13.32;;;9.32;;
51090;SDS011;37136;43.614;3.908;2023-03-01T16:41:46;13.95;;;9.48;;
51090;SDS011;37136;43.614;3.908;2023-03-01T16:44:12;15.80;;;10.95;;
51090;SDS011;37136;43.614;3.908;2023-03-01T16:46:38;12.98;;;9.43;;
51090;SDS011;37136;43.614;3.908;2023-03-01T16:49:08;15.98;;;10.20;;
51090;SDS011;37136;43.614;3.908;2023-03-01T16:51:34;23.88;;;14.02;;
51090;SDS011;37136;43.614;3.908;2023-03-01T16:54:01;18.85;;;9.90;;
51090;SDS011;37136;43.614;3.908;2023-03-01T16:56:29;14.60;;;9.17;;
51090;SDS011;37136;43.614;3.908;2023-03-01T16:58:57;10.43;;;8.37;;
51090;SDS011;37136;43.614;3.908;2023-03-01T17:01:24;12.77;;;9.00;;
51090;SDS011;37136;43.614;3.908;2023-03-01T17:03:51;11.05;;;8.07;;
51090;SDS011;37136;43.614;3.908;2023-03-01T17:06:18;16.15;;;9.80;;
51090;SDS011;37136;43.614;3.908;2023-03-01T17:08:49;13.52;;;8.95;;
51090;SDS011;37136;43.614;3.908;2023-03-01T17:11:17;12.75;;;9.15;;
51090;SDS011;37136;43.614;3.908;2023-03-01T17:13:43;14.82;;;9.23;;